createdAt,value
2023-05-09T00:18:26.086Z,19.9
2023-05-09T00:48:19.069Z,19.8
2023-05-09T01:18:18.778Z,19.8
2023-05-09T01:48:19.083Z,19.8
2023-05-09T02:18:19.061Z,19.8
2023-05-09T02:48:19.113Z,19.8
2023-05-09T03:18:18.773Z,19.8
2023-05-09T03:48:19.060Z,19.7
2023-05-09T04:18:19.057Z,19.6
2023-05-09T04:48:19.081Z,19.6
2023-05-09T06:18:19.045Z,19.6
2023-05-09T06:48:19.097Z,19.6
2023-05-09T07:18:19.040Z,19.6
2023-05-09T07:48:19.030Z,19.6
2023-05-09T08:18:19.058Z,19.6
2023-05-09T08:48:19.028Z,19.6
2023-05-09T09:18:19.036Z,19.6
2023-05-09T09:48:19.035Z,19.6
2023-05-09T10:18:19.170Z,19.6
2023-05-09T10:48:19.131Z,19.6
2023-05-09T11:18:19.179Z,19.6
2023-05-09T11:48:18.772Z,19.6
2023-05-09T12:18:19.193Z,19.6
2023-05-09T13:18:19.032Z,19.6
2023-05-09T13:48:19.050Z,19.6
2023-05-09T14:18:19.017Z,19.7
2023-05-09T16:48:19.009Z,20.1
2023-05-09T17:48:19.038Z,20.1
2023-05-09T18:18:19.029Z,20.1
2023-05-09T18:41:45.739Z,20.9
2023-05-09T19:11:45.980Z,22.3
2023-05-09T19:41:44.795Z,22.3
2023-05-09T20:11:44.590Z,22.3
2023-05-09T20:41:44.114Z,22.3
2023-05-09T21:11:44.690Z,22.3
2023-05-09T21:41:44.151Z,22.2
2023-05-09T22:11:44.599Z,22.2
2023-05-09T22:41:44.563Z,22.1
2023-05-09T23:11:44.562Z,22.1
2023-05-09T23:41:44.564Z,22.1
